Time;durP1;ratioP1;P1;durP2;ratioP2;P2;SDS_P1;SDS_P2;PMS_P1;PMS_P2;Temp;Humidity;BMP_temperature;BMP_pressure;BME280_temperature;BME280_humidity;BME280_pressure;Samples;Min_cycle;Max_cycle;Signal;HPM_P1;HPM_P2
2023/05/05 00:00:51;;;;;;;;;;;;;;;27.18;33.88;101121.63;5095269;28;1105;-21
2023/05/05 00:03:19;;;;;;;;;;;;;;;27.22;32.08;101112.19;5090710;28;928;-21
2023/05/05 00:05:45;;;;;;;;;;;;;;;26.46;35.34;101113.34;5095369;28;1136;-20
2023/05/05 00:08:10;;;;;;;;;;;;;;;26.68;34.81;101117.19;5078637;28;1134;-21
2023/05/05 00:10:36;;;;;;;;;;;;;;;27.20;32.96;101123.16;5081788;28;1070;-21
2023/05/05 00:13:02;;;;;;;;;;;;;;;26.51;33.91;101114.50;5099429;28;1189;-21
2023/05/05 00:15:27;;;;;;;;;;;;;;;26.31;34.01;101116.66;5084243;28;1452;-21
2023/05/05 00:17:53;;;;;;;;;;;;;;;27.14;32.63;101111.19;5088026;28;1985;-21
2023/05/05 00:20:18;;;;;;;;;;;;;;;26.68;32.92;101114.47;5078267;28;1007;-21
2023/05/05 00:22:44;;;;;;;;;;;;;;;26.28;33.69;101109.78;5078372;28;1220;-21
2023/05/05 00:25:10;;;;;;;;;;;;;;;27.10;32.70;101103.63;5095252;28;1042;-21
2023/05/05 00:27:36;;;;;;;;;;;;;;;27.17;32.61;101110.00;5087824;28;989;-21
2023/05/05 00:30:02;;;;;;;;;;;;;;;26.22;34.50;101106.91;5081560;28;1123;-21
2023/05/05 00:32:27;;;;;;;;;;;;;;;27.06;33.46;101105.00;5088831;28;1081;-21
2023/05/05 00:34:53;;;;;;;;;;;;;;;27.36;33.19;101095.22;5078399;28;1292;-21
2023/05/05 00:37:18;;;;;;;;;;;;;;;26.57;35.25;101104.91;5079555;28;1131;-22
2023/05/05 00:39:44;;;;;;;;;;;;;;;26.85;34.83;101106.34;5083748;28;1989;-21
2023/05/05 00:42:09;;;;;;;;;;;;;;;27.30;33.46;101098.63;5098335;28;1018;-21
2023/05/05 00:44:38;;;;;;;;;;;;;;;26.48;34.45;101104.06;5066716;28;1122;-21
2023/05/05 00:47:04;;;;;;;;;;;;;;;26.21;34.76;101099.84;5097782;28;1148;-21
2023/05/05 00:49:30;;;;;;;;;;;;;;;27.00;33.09;101101.94;5063496;28;1086;-21
2023/05/05 00:51:55;;;;;;;;;;;;;;;27.19;32.53;101099.03;5077470;28;880;-22
2023/05/05 00:54:21;;;;;;;;;;;;;;;26.36;34.43;101100.03;5075859;28;1075;-21
2023/05/05 00:56:47;;;;;;;;;;;;;;;26.95;33.78;101103.47;5070038;28;1073;-21
2023/05/05 00:59:13;;;;;;;;;;;;;;;27.32;32.84;101098.47;5080297;28;1975;-21
2023/05/05 01:01:38;;;;;;;;;;;;;;;26.54;34.21;101097.16;5088807;28;1046;-21
2023/05/05 01:04:04;;;;;;;;;;;;;;;26.33;34.90;101103.03;5066385;28;1122;-21
2023/05/05 01:06:48;;;;;;;;;;;;;;;27.18;33.07;101103.59;5063325;28;1196;-20
2023/05/05 01:09:18;;;;;;;;;;;;;;;26.81;33.27;101100.47;5091829;28;1022;-21
2023/05/05 01:11:45;;;;;;;;;;;;;;;26.32;34.36;101101.34;5072807;28;1113;-21
2023/05/05 01:14:29;;;;;;;;;;;;;;;27.18;32.60;101114.38;5058943;28;1226;-21
2023/05/05 01:16:56;;;;;;;;;;;;;;;27.04;32.75;101094.38;5090665;28;998;-21
2023/05/05 01:19:40;;;;;;;;;;;;;;;26.49;33.98;101100.34;5076101;28;1987;-21
2023/05/05 01:22:06;;;;;;;;;;;;;;;27.16;33.02;101097.50;5081733;28;1147;-22
2023/05/05 01:24:37;;;;;;;;;;;;;;;27.58;31.98;101087.34;5097417;28;1128;-21
2023/05/05 01:27:21;;;;;;;;;;;;;;;26.74;34.08;101088.69;5064636;28;1250;-21
2023/05/05 01:29:59;;;;;;;;;;;;;;;27.17;33.49;101080.31;5059348;28;1155;-21
2023/05/05 01:32:25;;;;;;;;;;;;;;;27.06;32.54;101081.50;5069486;28;1130;-21
2023/05/05 01:35:08;;;;;;;;;;;;;;;26.43;34.63;101074.06;5083887;28;1106;-21
2023/05/05 01:37:42;;;;;;;;;;;;;;;26.67;33.68;101074.19;5067282;28;1909;-21
2023/05/05 01:40:08;;;;;;;;;;;;;;;27.14;32.33;101077.97;5090456;28;1221;-21
2023/05/05 01:42:34;;;;;;;;;;;;;;;26.60;33.23;101077.56;5079283;28;1091;-21
2023/05/05 01:45:00;;;;;;;;;;;;;;;26.46;33.12;101083.69;5077384;28;1047;-21
2023/05/05 01:47:25;;;;;;;;;;;;;;;27.20;32.06;101076.41;5075458;28;1162;-21
2023/05/05 01:49:51;;;;;;;;;;;;;;;26.62;33.06;101075.56;5076487;28;1082;-21
2023/05/05 01:52:16;;;;;;;;;;;;;;;26.46;33.23;101072.88;5082187;28;862;-21
2023/05/05 01:54:43;;;;;;;;;;;;;;;27.12;32.07;101072.72;5076964;28;1196;-21
2023/05/05 01:57:08;;;;;;;;;;;;;;;26.64;32.94;101070.00;5078667;28;1031;-21
2023/05/05 01:59:34;;;;;;;;;;;;;;;26.67;32.63;101066.94;5061440;28;1984;-21
2023/05/05 02:02:00;;;;;;;;;;;;;;;26.99;32.27;101072.41;5084223;28;1193;-21
2023/05/05 02:04:27;;;;;;;;;;;;;;;26.95;31.97;101063.81;5058276;28;1091;-21
2023/05/05 02:06:52;;;;;;;;;;;;;;;26.50;32.71;101063.41;5076884;28;1284;-21
2023/05/05 02:09:18;;;;;;;;;;;;;;;27.05;31.86;101060.94;5089969;28;1039;-21
2023/05/05 02:11:43;;;;;;;;;;;;;;;26.77;32.17;101070.28;5059965;28;1079;-21
2023/05/05 02:14:09;;;;;;;;;;;;;;;26.39;32.75;101065.44;5072055;28;1087;-21
2023/05/05 02:16:36;;;;;;;;;;;;;;;26.89;33.60;101068.03;5082205;28;1086;-22
2023/05/05 02:19:03;;;;;;;;;;;;;;;27.11;33.23;101064.81;5078402;28;1918;-21
2023/05/05 02:21:30;;;;;;;;;;;;;;;26.33;35.54;101060.75;5062184;28;1202;-21
2023/05/05 02:23:56;;;;;;;;;;;;;;;26.92;34.80;101068.72;5096169;28;1121;-22
2023/05/05 02:26:21;;;;;;;;;;;;;;;27.00;33.96;101063.28;5048889;28;1064;-21
2023/05/05 02:28:48;;;;;;;;;;;;;;;26.31;36.24;101062.72;5077624;28;1103;-21
2023/05/05 02:31:13;;;;;;;;;;;;;;;26.84;34.83;101056.91;5065483;28;2065;-21
2023/05/05 02:33:39;;;;;;;;;;;;;;;27.17;33.02;101065.94;5058423;28;1438;-21
2023/05/05 02:36:09;;;;;;;;;;;;;;;26.52;35.04;101070.34;5042641;28;1194;-21
2023/05/05 02:38:35;;;;;;;;;;;;;;;26.55;35.15;101069.16;5057951;28;1910;-21
2023/05/05 02:41:01;;;;;;;;;;;;;;;26.98;32.99;101068.00;5055024;28;1214;-21
2023/05/05 02:43:26;;;;;;;;;;;;;;;26.52;34.68;101070.34;5044871;28;1147;-21
2023/05/05 02:45:52;;;;;;;;;;;;;;;26.39;33.95;101064.63;5071476;28;1067;-21
2023/05/05 02:48:19;;;;;;;;;;;;;;;26.98;32.20;101074.25;5057866;28;1444;-22
2023/05/05 02:50:44;;;;;;;;;;;;;;;26.34;33.75;101064.28;5075938;28;1051;-21
2023/05/05 02:53:21;;;;;;;;;;;;;;;26.55;33.30;101068.31;5058129;28;1371;-22
2023/05/05 02:55:49;;;;;;;;;;;;;;;27.08;31.97;101065.13;5059313;28;1225;-21
2023/05/05 02:58:20;;;;;;;;;;;;;;;26.31;33.76;101076.22;5069173;28;1930;-23
2023/05/05 03:00:49;;;;;;;;;;;;;;;26.32;33.60;101071.69;5060163;28;1217;-21
2023/05/05 03:03:19;;;;;;;;;;;;;;;27.04;31.94;101070.06;5077598;28;1396;-21
2023/05/05 03:05:52;;;;;;;;;;;;;;;26.42;33.43;101066.97;5061202;28;1232;-21
2023/05/05 03:08:28;;;;;;;;;;;;;;;26.64;32.55;101072.69;5077755;28;1425;-21
2023/05/05 03:11:03;;;;;;;;;;;;;;;27.07;32.12;101071.56;5058753;28;1217;-21
2023/05/05 03:13:29;;;;;;;;;;;;;;;26.82;32.36;101085.13;5071951;28;1173;-21
2023/05/05 03:15:55;;;;;;;;;;;;;;;26.14;33.48;101078.09;5077396;28;1271;-21
2023/05/05 03:18:23;;;;;;;;;;;;;;;26.98;32.36;101076.97;5072300;28;1914;-21
2023/05/05 03:20:55;;;;;;;;;;;;;;;26.99;32.22;101081.34;5074431;28;1256;-22
2023/05/05 03:23:21;;;;;;;;;;;;;;;26.35;33.28;101088.41;5057142;28;1895;-22
2023/05/05 03:25:51;;;;;;;;;;;;;;;26.98;32.43;101095.88;5071243;28;1123;-22
2023/05/05 03:28:26;;;;;;;;;;;;;;;26.99;32.16;101094.84;5073895;28;1121;-22
2023/05/05 03:30:52;;;;;;;;;;;;;;;26.16;33.59;101092.22;5081661;28;1385;-21
2023/05/05 03:33:17;;;;;;;;;;;;;;;27.00;32.16;101098.38;5081394;28;1102;-21
2023/05/05 03:35:43;;;;;;;;;;;;;;;26.92;31.70;101096.56;5068164;28;1237;-22
2023/05/05 03:38:11;;;;;;;;;;;;;;;26.21;33.50;101097.16;5073212;28;1980;-21
2023/05/05 03:40:36;;;;;;;;;;;;;;;26.84;32.31;101110.91;5092321;28;1158;-22
2023/05/05 03:43:02;;;;;;;;;;;;;;;26.98;31.85;101113.91;5061303;28;1352;-21
2023/05/05 03:45:28;;;;;;;;;;;;;;;26.22;32.72;101101.50;5075651;28;1306;-22
2023/05/05 03:47:53;;;;;;;;;;;;;;;26.37;31.95;101101.72;5080994;28;1506;-23
2023/05/05 03:50:19;;;;;;;;;;;;;;;26.56;30.87;101105.91;5081329;28;1311;-22
2023/05/05 03:52:45;;;;;;;;;;;;;;;26.69;30.39;101105.41;5078773;28;1795;-23
2023/05/05 03:55:10;;;;;;;;;;;;;;;26.32;29.62;101001.56;5069860;28;1158;-24
2023/05/05 03:57:36;;;;;;;;;;;;;;;27.33;29.35;101119.91;5067415;28;1917;-21
2023/05/05 04:00:01;;;;;;;;;;;;;;;27.49;29.43;101121.66;5081008;28;1217;-21
2023/05/05 04:02:28;;;;;;;;;;;;;;;26.39;31.65;101129.38;5084989;28;1129;-21
2023/05/05 04:04:54;;;;;;;;;;;;;;;25.89;31.53;101121.22;5072215;28;1430;-21
2023/05/05 04:07:21;;;;;;;;;;;;;;;26.50;29.68;101117.38;5063862;28;1233;-21
2023/05/05 04:09:47;;;;;;;;;;;;;;;25.85;30.55;101117.13;5070638;28;1142;-22
2023/05/05 04:12:12;;;;;;;;;;;;;;;25.96;29.98;101130.28;5060919;28;1217;-21
2023/05/05 04:14:38;;;;;;;;;;;;;;;26.92;29.20;101131.66;5060611;28;1364;-21
2023/05/05 04:17:07;;;;;;;;;;;;;;;26.64;28.47;101124.78;5094892;28;1194;-21
2023/05/05 04:19:33;;;;;;;;;;;;;;;26.39;29.26;101118.56;5069031;28;1998;-20
2023/05/05 04:22:00;;;;;;;;;;;;;;;26.55;29.51;101112.31;5060208;28;1240;-21
2023/05/05 04:24:26;;;;;;;;;;;;;;;26.94;28.59;101107.19;5060756;28;1441;-21
2023/05/05 04:26:53;;;;;;;;;;;;;;;27.21;28.21;101110.50;5060606;28;1111;-21
2023/05/05 04:29:19;;;;;;;;;;;;;;;26.34;28.57;101102.06;5070838;28;1345;-21
2023/05/05 04:31:45;;;;;;;;;;;;;;;26.25;28.79;101106.56;5060482;28;1239;-23
2023/05/05 04:34:10;;;;;;;;;;;;;;;26.12;29.73;101107.94;5080328;28;1094;-22
2023/05/05 04:36:36;;;;;;;;;;;;;;;26.44;28.82;101104.56;5080287;28;1118;-21
2023/05/05 04:39:02;;;;;;;;;;;;;;;25.71;30.17;101102.47;5059090;28;1963;-20
2023/05/05 04:41:28;;;;;;;;;;;;;;;25.74;29.98;101096.75;5064348;28;1171;-21
2023/05/05 04:43:54;;;;;;;;;;;;;;;26.83;28.42;101101.13;5060253;28;1162;-21
2023/05/05 04:46:20;;;;;;;;;;;;;;;26.78;28.14;101098.09;5091673;28;1050;-21
2023/05/05 04:48:46;;;;;;;;;;;;;;;26.12;29.68;101088.19;5080176;28;1326;-21
2023/05/05 04:51:11;;;;;;;;;;;;;;;25.87;29.72;101089.03;5066361;28;1123;-21
2023/05/05 04:53:37;;;;;;;;;;;;;;;26.90;28.61;101091.34;5071378;28;1106;-22
2023/05/05 04:56:03;;;;;;;;;;;;;;;26.24;29.02;101091.41;5091860;28;1074;-21
2023/05/05 04:58:29;;;;;;;;;;;;;;;26.15;29.83;101085.16;5072559;28;1977;-21
2023/05/05 05:00:54;;;;;;;;;;;;;;;26.28;29.86;101092.75;5077960;28;1026;-20
2023/05/05 05:03:20;;;;;;;;;;;;;;;27.09;28.67;101091.13;5084488;28;1094;-21
2023/05/05 05:05:45;;;;;;;;;;;;;;;26.44;29.82;101091.09;5065953;28;1182;-20
2023/05/05 05:08:11;;;;;;;;;;;;;;;26.62;29.71;101096.28;5070236;28;1126;-21
2023/05/05 05:10:38;;;;;;;;;;;;;;;27.03;29.27;101098.06;5062166;28;2123;-21
2023/05/05 05:13:04;;;;;;;;;;;;;;;27.47;28.79;101091.31;5088022;28;1142;-22
2023/05/05 05:15:29;;;;;;;;;;;;;;;26.45;29.99;101090.91;5066282;28;1147;-21
2023/05/05 05:17:55;;;;;;;;;;;;;;;26.34;30.10;101102.88;5087515;28;1902;-21
2023/05/05 05:20:20;;;;;;;;;;;;;;;26.55;30.32;101097.97;5072470;28;1322;-21
2023/05/05 05:22:46;;;;;;;;;;;;;;;26.17;30.96;101096.63;5068379;28;1510;-21
2023/05/05 05:25:15;;;;;;;;;;;;;;;26.09;30.92;101093.94;5063015;28;1343;-21
2023/05/05 05:27:41;;;;;;;;;;;;;;;26.31;30.79;101095.09;5068779;28;1156;-21
2023/05/05 05:30:08;;;;;;;;;;;;;;;26.22;30.90;101099.66;5061720;28;1395;-21
2023/05/05 05:32:34;;;;;;;;;;;;;;;26.31;30.64;101094.28;5079310;28;1199;-21
2023/05/05 05:35:00;;;;;;;;;;;;;;;26.32;30.77;101101.34;5065660;28;1153;-21
2023/05/05 05:37:29;;;;;;;;;;;;;;;26.73;30.16;101103.16;5068976;28;1396;-21
2023/05/05 05:39:56;;;;;;;;;;;;;;;26.06;31.08;101108.56;5059997;28;1918;-21
2023/05/05 05:42:23;;;;;;;;;;;;;;;25.66;32.04;101108.34;5067038;28;1505;-21
2023/05/05 05:44:48;;;;;;;;;;;;;;;25.40;32.55;101115.47;5059209;28;1351;-21
2023/05/05 05:47:14;;;;;;;;;;;;;;;26.70;30.45;101117.88;5070634;28;1184;-21
2023/05/05 05:49:40;;;;;;;;;;;;;;;26.62;30.66;101117.88;5065019;28;1553;-21
2023/05/05 05:52:05;;;;;;;;;;;;;;;25.76;31.56;101121.66;5068983;28;1172;-21
2023/05/05 05:54:33;;;;;;;;;;;;;;;25.60;32.46;101117.91;5060572;28;1481;-21
2023/05/05 05:56:59;;;;;;;;;;;;;;;26.47;30.82;101123.97;5058762;28;1294;-22
2023/05/05 05:59:24;;;;;;;;;;;;;;;26.33;31.22;101122.78;5076567;28;1914;-21
2023/05/05 06:01:50;;;;;;;;;;;;;;;26.43;31.19;101125.31;5070344;28;1262;-21
2023/05/05 06:04:16;;;;;;;;;;;;;;;26.11;31.58;101133.19;5093711;28;1132;-21
2023/05/05 06:06:42;;;;;;;;;;;;;;;26.55;30.90;101125.81;5067231;28;1427;-21
2023/05/05 06:09:07;;;;;;;;;;;;;;;26.21;31.35;101130.31;5058453;28;1354;-21
2023/05/05 06:11:33;;;;;;;;;;;;;;;25.66;32.21;101127.19;5068864;28;1043;-21
2023/05/05 06:13:59;;;;;;;;;;;;;;;25.68;32.60;101122.50;5073924;28;1301;-21
2023/05/05 06:16:25;;;;;;;;;;;;;;;26.73;30.45;101128.31;5052892;28;1318;-22
2023/05/05 06:18:51;;;;;;;;;;;;;;;26.29;31.19;101127.63;5064227;28;1914;-21
2023/05/05 06:21:19;;;;;;;;;;;;;;;25.63;32.49;101130.22;5078523;28;1103;-21
2023/05/05 06:23:45;;;;;;;;;;;;;;;26.08;32.01;101135.34;5059616;28;1342;-21
2023/05/05 06:26:11;;;;;;;;;;;;;;;26.29;30.82;101138.41;5069448;28;1279;-21
2023/05/05 06:28:37;;;;;;;;;;;;;;;25.98;31.88;101136.38;5090998;28;1000;-21
2023/05/05 06:31:02;;;;;;;;;;;;;;;25.71;32.02;101135.63;5076080;28;1102;-21
2023/05/05 06:33:28;;;;;;;;;;;;;;;26.24;31.33;101131.84;5080648;28;1129;-21
2023/05/05 06:35:53;;;;;;;;;;;;;;;26.39;30.81;101132.06;5095946;28;1108;-20
2023/05/05 06:38:19;;;;;;;;;;;;;;;26.34;31.11;101143.34;5076612;28;1984;-21
2023/05/05 06:40:51;;;;;;;;;;;;;;;25.95;32.07;101142.09;5068615;28;1011;-21
2023/05/05 06:43:16;;;;;;;;;;;;;;;26.52;31.07;101151.28;5095687;28;1077;-21
2023/05/05 06:45:46;;;;;;;;;;;;;;;26.37;31.23;101155.66;5065978;28;1198;-21
2023/05/05 06:48:12;;;;;;;;;;;;;;;26.15;31.74;101149.88;5094554;28;1213;-21
2023/05/05 06:50:37;;;;;;;;;;;;;;;25.82;31.92;101145.28;5096081;28;1458;-21
2023/05/05 06:53:03;;;;;;;;;;;;;;;26.64;30.65;101148.25;5095223;28;1015;-21
2023/05/05 06:55:28;;;;;;;;;;;;;;;26.48;30.85;101139.13;5096150;28;1094;-21
2023/05/05 06:57:54;;;;;;;;;;;;;;;25.93;32.04;101141.41;5095583;28;1910;-21
2023/05/05 07:00:21;;;;;;;;;;;;;;;25.78;32.53;101154.69;5077555;28;1101;-21
2023/05/05 07:02:46;;;;;;;;;;;;;;;26.66;31.23;101148.88;5091651;28;1063;-21
2023/05/05 07:05:12;;;;;;;;;;;;;;;26.36;31.25;101151.28;5091705;28;1007;-21
2023/05/05 07:07:37;;;;;;;;;;;;;;;26.41;31.17;101157.84;5099800;28;1057;-21
2023/05/05 07:10:03;;;;;;;;;;;;;;;25.98;31.79;101155.25;5087946;28;1146;-21
2023/05/05 07:12:29;;;;;;;;;;;;;;;26.50;31.52;101150.59;5098846;28;1147;-21
2023/05/05 07:14:55;;;;;;;;;;;;;;;26.43;31.32;101160.38;5087209;28;1507;-22
2023/05/05 07:17:21;;;;;;;;;;;;;;;25.83;32.08;101160.44;5098035;28;1079;-22
2023/05/05 07:19:47;;;;;;;;;;;;;;;25.48;32.95;101164.97;5087199;28;1917;-21
2023/05/05 07:22:12;;;;;;;;;;;;;;;26.47;31.65;101168.97;5098802;28;1097;-21
2023/05/05 07:24:38;;;;;;;;;;;;;;;26.29;31.59;101172.66;5087364;28;1038;-21
2023/05/05 07:27:03;;;;;;;;;;;;;;;26.15;31.95;101166.91;5068408;28;1077;-21
2023/05/05 07:29:29;;;;;;;;;;;;;;;25.87;32.30;101160.94;5099611;28;1059;-22
2023/05/05 07:31:55;;;;;;;;;;;;;;;26.54;31.18;101161.91;5086163;28;1048;-23
2023/05/05 07:34:20;;;;;;;;;;;;;;;26.39;31.50;101165.25;5087147;28;1178;-22
2023/05/05 07:36:46;;;;;;;;;;;;;;;26.23;31.81;101166.06;5097091;28;1138;-21
2023/05/05 07:39:13;;;;;;;;;;;;;;;25.95;32.53;101160.13;5087105;28;1910;-21
2023/05/05 07:41:40;;;;;;;;;;;;;;;26.10;32.05;101163.00;5097654;28;1118;-21
2023/05/05 07:44:05;;;;;;;;;;;;;;;26.34;31.36;101164.09;5087231;28;1106;-21
2023/05/05 07:46:31;;;;;;;;;;;;;;;26.47;31.33;101168.97;5097512;28;1071;-22
2023/05/05 07:48:56;;;;;;;;;;;;;;;26.03;32.00;101169.06;5099418;28;1030;-21
2023/05/05 07:51:22;;;;;;;;;;;;;;;26.01;32.27;101168.38;5093671;28;1215;-21
2023/05/05 07:53:47;;;;;;;;;;;;;;;26.56;31.40;101165.25;5090331;28;1034;-21
2023/05/05 07:56:13;;;;;;;;;;;;;;;26.48;31.27;101176.03;5080289;28;1205;-22
2023/05/05 07:58:39;;;;;;;;;;;;;;;26.33;31.44;101174.03;5090601;28;1973;-21
2023/05/05 08:01:05;;;;;;;;;;;;;;;25.92;32.43;101169.38;5087141;28;1073;-21
2023/05/05 08:03:31;;;;;;;;;;;;;;;26.09;32.27;101167.53;5098928;28;1098;-20
2023/05/05 08:05:58;;;;;;;;;;;;;;;26.65;31.06;101175.06;5092873;28;1094;-21
2023/05/05 08:08:25;;;;;;;;;;;;;;;26.55;31.60;101166.28;5072704;28;1278;-21
2023/05/05 08:10:51;;;;;;;;;;;;;;;26.37;31.56;101169.16;5085486;28;1122;-21
2023/05/05 08:13:17;;;;;;;;;;;;;;;25.76;32.54;101170.16;5080488;28;1114;-21
2023/05/05 08:15:43;;;;;;;;;;;;;;;26.01;32.06;101162.13;5092087;28;1244;-21
2023/05/05 08:18:09;;;;;;;;;;;;;;;26.08;32.13;101170.41;5090254;28;1909;-21
2023/05/05 08:20:35;;;;;;;;;;;;;;;26.29;31.74;101176.19;5085553;28;1082;-21
2023/05/05 08:23:01;;;;;;;;;;;;;;;26.25;31.73;101172.13;5086565;28;1107;-21
2023/05/05 08:25:26;;;;;;;;;;;;;;;26.19;31.90;101166.56;5097229;28;1138;-21
2023/05/05 08:27:52;;;;;;;;;;;;;;;26.23;32.03;101167.91;5085588;28;1500;-23
2023/05/05 08:30:21;;;;;;;;;;;;;;;26.39;31.79;101170.66;5097247;28;1059;-22
2023/05/05 08:32:46;;;;;;;;;;;;;;;26.16;32.19;101163.19;5098503;28;1050;-22
2023/05/05 08:35:12;;;;;;;;;;;;;;;26.01;32.44;101163.00;5078718;28;1115;-21
2023/05/05 08:37:37;;;;;;;;;;;;;;;25.84;32.74;101161.28;5091565;28;1115;-22
2023/05/05 08:40:03;;;;;;;;;;;;;;;25.92;32.51;101159.44;5097583;28;1993;-21
2023/05/05 08:42:30;;;;;;;;;;;;;;;26.01;32.43;101159.44;5050724;28;1142;-21
2023/05/05 08:44:55;;;;;;;;;;;;;;;25.89;32.45;101156.25;5078219;28;1023;-22
2023/05/05 08:47:21;;;;;;;;;;;;;;;26.21;31.92;101157.28;5090200;28;1087;-22
2023/05/05 08:49:46;;;;;;;;;;;;;;;26.32;32.02;101161.53;5084307;28;1161;-21
2023/05/05 08:52:12;;;;;;;;;;;;;;;26.15;32.04;101157.97;5098275;28;1007;-21
2023/05/05 08:54:38;;;;;;;;;;;;;;;26.47;31.39;101150.94;5066090;28;1119;-22
2023/05/05 08:57:03;;;;;;;;;;;;;;;26.06;32.35;101145.50;5079493;28;1126;-22
2023/05/05 08:59:31;;;;;;;;;;;;;;;26.31;31.66;101154.44;5079381;28;1909;-21
2023/05/05 09:01:57;;;;;;;;;;;;;;;26.36;31.52;101152.09;5097614;28;1089;-21
2023/05/05 09:04:22;;;;;;;;;;;;;;;26.37;31.76;101153.81;5079057;28;1047;-22
2023/05/05 09:06:48;;;;;;;;;;;;;;;26.29;31.83;101143.00;5085546;28;1138;-21
2023/05/05 09:09:14;;;;;;;;;;;;;;;26.03;32.06;101131.31;5059373;28;1086;-21
2023/05/05 09:11:40;;;;;;;;;;;;;;;25.94;32.54;101142.25;5089755;28;1053;-22
2023/05/05 09:14:05;;;;;;;;;;;;;;;25.96;32.40;101142.94;5066377;28;1110;-22
2023/05/05 09:16:31;;;;;;;;;;;;;;;26.03;32.16;101136.72;5066929;28;1155;-22
2023/05/05 09:19:00;;;;;;;;;;;;;;;26.11;31.86;101125.09;5090176;28;1977;-21
2023/05/05 09:21:26;;;;;;;;;;;;;;;26.19;31.90;101129.66;5090140;28;1103;-24
2023/05/05 09:24:07;;;;;;;;;;;;;;;26.38;31.38;101130.34;5097113;28;1032;-22
2023/05/05 09:26:33;;;;;;;;;;;;;;;25.92;32.29;101126.25;5095165;28;1051;-22
2023/05/05 09:28:59;;;;;;;;;;;;;;;26.12;32.02;101125.94;5085496;28;1229;-21
2023/05/05 09:31:25;;;;;;;;;;;;;;;25.73;32.82;101125.53;5082943;28;919;-22
2023/05/05 09:33:50;;;;;;;;;;;;;;;26.12;32.07;101123.25;5097016;28;1078;-22
2023/05/05 09:36:16;;;;;;;;;;;;;;;26.14;32.15;101118.53;5076477;28;1046;-23
2023/05/05 09:38:43;;;;;;;;;;;;;;;26.43;31.58;101113.66;5085027;28;1993;-22
2023/05/05 09:41:09;;;;;;;;;;;;;;;26.46;31.49;101118.75;5065654;28;1178;-22
2023/05/05 09:43:50;;;;;;;;;;;;;;;26.29;31.89;101119.53;5096846;28;813;-22
2023/05/05 09:46:16;;;;;;;;;;;;;;;26.38;31.64;101109.63;5079401;28;1158;-21
2023/05/05 09:48:41;;;;;;;;;;;;;;;26.69;30.98;101116.19;5087105;28;1027;-22
2023/05/05 09:51:07;;;;;;;;;;;;;;;26.64;31.24;101107.75;5096300;28;1074;-21
2023/05/05 09:53:39;;;;;;;;;;;;;;;26.28;31.96;101107.06;5096894;28;1055;-21
2023/05/05 09:56:04;;;;;;;;;;;;;;;26.27;31.90;101107.25;5095957;28;840;-22
2023/05/05 09:58:30;;;;;;;;;;;;;;;26.19;32.05;101109.94;5096910;28;1988;-22
2023/05/05 10:00:56;;;;;;;;;;;;;;;26.62;31.32;101107.94;5096422;28;1054;-21
2023/05/05 10:03:22;;;;;;;;;;;;;;;26.45;31.09;101101.72;5085472;28;1402;-22
2023/05/05 10:05:49;;;;;;;;;;;;;;;26.66;31.17;101100.31;5093624;28;1015;-23
2023/05/05 10:08:15;;;;;;;;;;;;;;;26.51;31.21;101105.56;5096154;28;991;-23
2023/05/05 10:10:51;;;;;;;;;;;;;;;26.73;30.98;101106.72;5074085;28;1388;-21
2023/05/05 10:13:17;;;;;;;;;;;;;;;27.14;30.56;101100.38;5088730;28;1043;-22
2023/05/05 10:15:43;;;;;;;;;;;;;;;26.83;30.78;101109.22;5082704;28;1290;-22
2023/05/05 10:18:09;;;;;;;;;;;;;;;27.00;30.47;101112.72;5096172;28;2008;-22
2023/05/05 10:20:35;;;;;;;;;;;;;;;27.01;30.47;101100.94;5076801;28;979;-22
2023/05/05 10:23:00;;;;;;;;;;;;;;;27.08;30.68;101098.38;5076397;28;1003;-22
2023/05/05 10:25:30;;;;;;;;;;;;;;;27.05;30.75;101098.75;5075970;28;1082;-22
2023/05/05 10:27:58;;;;;;;;;;;;;;;26.78;31.15;101092.72;5089131;28;1094;-21
2023/05/05 10:30:25;;;;;;;;;;;;;;;27.02;30.59;101094.53;5089504;28;1113;-23
2023/05/05 10:32:50;;;;;;;;;;;;;;;27.23;30.58;101105.75;5071676;28;1127;-22
2023/05/05 10:35:26;;;;;;;;;;;;;;;26.76;30.78;101095.59;5095695;28;1018;-24
2023/05/05 10:37:52;;;;;;;;;;;;;;;26.46;29.22;101089.91;5075035;28;1971;-25
2023/05/05 10:40:18;;;;;;;;;;;;;;;26.10;30.74;101090.22;5065581;28;1183;-23
2023/05/05 10:42:43;;;;;;;;;;;;;;;26.35;30.80;101090.25;5095918;28;1034;-23
2023/05/05 10:45:09;;;;;;;;;;;;;;;26.35;30.48;101083.00;5070322;28;1034;-24
2023/05/05 10:47:35;;;;;;;;;;;;;;;26.09;30.95;101075.06;5090596;28;1098;-26
2023/05/05 10:50:10;;;;;;;;;;;;;;;25.99;31.07;101086.00;5096048;28;1102;-23
2023/05/05 10:52:45;;;;;;;;;;;;;;;26.04;31.00;101075.56;5095547;28;1010;-24
2023/05/05 10:55:15;;;;;;;;;;;;;;;26.08;30.79;101073.34;5095568;28;1062;-24
2023/05/05 10:57:41;;;;;;;;;;;;;;;26.22;30.64;101069.16;5082322;28;1173;-24
2023/05/05 11:00:07;;;;;;;;;;;;;;;26.03;30.56;101071.16;5095452;28;1910;-24
2023/05/05 11:02:34;;;;;;;;;;;;;;;25.97;30.72;101067.31;5082290;28;1158;-23
2023/05/05 11:05:03;;;;;;;;;;;;;;;26.04;30.31;101068.31;5084622;28;1098;-23
2023/05/05 11:07:29;;;;;;;;;;;;;;;26.37;29.59;101066.66;5093147;28;1062;-23
2023/05/05 11:10:00;;;;;;;;;;;;;;;25.80;29.50;101064.59;5095600;28;1070;-23
2023/05/05 11:12:26;;;;;;;;;;;;;;;25.90;30.26;101050.97;5081940;28;1042;-23
2023/05/05 11:15:10;;;;;;;;;;;;;;;26.03;30.13;101046.91;5095617;28;1062;-22
2023/05/05 11:17:48;;;;;;;;;;;;;;;26.61;29.38;101049.56;5088482;28;1434;-23
2023/05/05 11:20:13;;;;;;;;;;;;;;;26.04;29.84;101045.91;5088541;28;1985;-24
2023/05/05 11:22:57;;;;;;;;;;;;;;;26.38;29.43;101041.34;5084515;28;1182;-23
2023/05/05 11:25:35;;;;;;;;;;;;;;;25.95;30.57;101036.97;5090066;28;1039;-26
2023/05/05 11:28:04;;;;;;;;;;;;;;;25.85;30.62;101033.59;5075628;28;1006;-23
2023/05/05 11:30:30;;;;;;;;;;;;;;;26.61;29.79;101019.88;5075770;28;1034;-23
2023/05/05 11:33:14;;;;;;;;;;;;;;;26.07;30.06;101012.38;5089568;28;1173;-22
2023/05/05 11:35:55;;;;;;;;;;;;;;;26.42;29.89;101004.94;5095657;28;1121;-23
2023/05/05 11:38:22;;;;;;;;;;;;;;;25.93;30.61;101009.34;5094680;28;1980;-25
2023/05/05 11:40:48;;;;;;;;;;;;;;;26.02;30.80;101002.97;5065703;28;1088;-23
2023/05/05 11:43:17;;;;;;;;;;;;;;;25.93;30.80;101006.66;5069852;28;1147;-23
2023/05/05 11:45:42;;;;;;;;;;;;;;;26.00;30.71;100999.56;5088151;28;1014;-23
2023/05/05 11:48:37;;;;;;;;;;;;;;;26.08;30.44;100995.19;5058320;28;1023;-23
2023/05/05 11:51:04;;;;;;;;;;;;;;;26.05;30.66;100988.28;5062307;28;1592;-23
2023/05/05 11:53:29;;;;;;;;;;;;;;;26.34;29.68;100976.13;5088464;28;1201;-23
2023/05/05 11:56:07;;;;;;;;;;;;;;;26.15;30.28;100980.00;5077326;28;1122;-23
2023/05/05 11:58:33;;;;;;;;;;;;;;;25.98;30.74;100973.78;5079044;28;2263;-23
2023/05/05 12:00:58;;;;;;;;;;;;;;;25.84;30.88;100969.94;5097329;28;1022;-24
2023/05/05 12:03:24;;;;;;;;;;;;;;;25.83;30.80;100970.94;5098510;28;1034;-23
2023/05/05 12:05:53;;;;;;;;;;;;;;;26.39;29.71;100965.66;5076415;28;1094;-22
2023/05/05 12:08:19;;;;;;;;;;;;;;;26.38;30.24;100953.19;5078608;28;906;-21
2023/05/05 12:10:44;;;;;;;;;;;;;;;26.57;29.49;100950.28;5092353;28;1051;-22
2023/05/05 12:13:16;;;;;;;;;;;;;;;26.69;29.79;100938.09;5090201;28;1087;-21
2023/05/05 12:15:42;;;;;;;;;;;;;;;26.69;29.94;100945.34;5085210;28;1170;-22
2023/05/05 12:18:16;;;;;;;;;;;;;;;26.27;30.26;100940.91;5098398;28;1913;-22
2023/05/05 12:20:42;;;;;;;;;;;;;;;26.23;30.53;100941.41;5098336;28;837;-22
2023/05/05 12:23:11;;;;;;;;;;;;;;;26.27;30.67;100931.97;5098119;28;1057;-22
2023/05/05 12:25:39;;;;;;;;;;;;;;;26.24;30.96;100929.63;5085645;28;1206;-20
2023/05/05 12:28:06;;;;;;;;;;;;;;;25.91;31.46;100917.03;5097531;28;1042;-20
2023/05/05 12:30:32;;;;;;;;;;;;;;;26.01;31.17;100925.78;5086054;28;1106;-20
2023/05/05 12:33:04;;;;;;;;;;;;;;;26.03;30.98;100923.75;5097670;28;943;-22
2023/05/05 12:35:30;;;;;;;;;;;;;;;25.96;31.35;100919.22;5098438;28;1065;-22
2023/05/05 12:37:57;;;;;;;;;;;;;;;26.16;31.06;100919.66;5079247;28;1909;-23
2023/05/05 12:40:41;;;;;;;;;;;;;;;26.13;31.14;100903.84;5071545;28;1119;-22
2023/05/05 12:43:07;;;;;;;;;;;;;;;26.07;30.96;100897.31;5096024;28;1174;-22
2023/05/05 12:45:32;;;;;;;;;;;;;;;26.16;30.83;100881.94;5098226;28;1061;-22
2023/05/05 12:47:58;;;;;;;;;;;;;;;26.25;30.50;100880.06;5097784;28;1030;-22